createdAt,value
2022-09-15T00:02:23.940Z,6.47
2022-09-15T00:09:59.155Z,4.10
2022-09-15T00:17:32.844Z,4.50
2022-09-15T00:25:08.424Z,7.63
2022-09-15T00:32:42.091Z,6.13
2022-09-15T00:40:17.587Z,5.93
2022-09-15T00:47:51.740Z,4.28
2022-09-15T00:55:31.552Z,4.87
2022-09-15T01:03:05.587Z,7.20
2022-09-15T01:10:42.100Z,5.68
2022-09-15T01:18:22.196Z,7.20
2022-09-15T01:26:18.104Z,4.22
2022-09-15T01:34:01.903Z,5.05
2022-09-15T01:41:38.814Z,7.43
2022-09-15T01:49:18.319Z,9.07
2022-09-15T01:56:52.186Z,5.00
2022-09-15T02:04:32.263Z,5.40
2022-09-15T02:12:14.491Z,5.15
2022-09-15T02:19:52.546Z,5.82
2022-09-15T02:27:29.985Z,6.53
2022-09-15T02:35:08.211Z,6.28
2022-09-15T02:42:42.526Z,5.25
2022-09-15T02:50:17.903Z,8.13
2022-09-15T02:57:51.598Z,8.45
2022-09-15T03:05:28.961Z,5.70
2022-09-15T03:13:02.654Z,5.28
2022-09-15T03:20:37.689Z,5.72
2022-09-15T03:35:48.514Z,7.40
2022-09-15T03:43:22.283Z,9.55
2022-09-15T03:50:57.347Z,11.63
2022-09-15T04:06:06.461Z,4.80
2022-09-15T04:13:41.810Z,6.07
2022-09-15T04:21:19.226Z,7.32
2022-09-15T04:28:52.955Z,5.28
2022-09-15T04:36:29.420Z,4.80
2022-09-15T04:44:03.495Z,4.85
2022-09-15T04:51:39.360Z,5.95
2022-09-15T04:59:15.028Z,9.18
2022-09-15T05:06:50.370Z,6.60
2022-09-15T05:14:24.151Z,8.38
2022-09-15T05:21:59.136Z,5.75
2022-09-15T05:37:07.862Z,6.90
2022-09-15T05:44:41.566Z,8.35
2022-09-15T05:52:16.557Z,6.45
2022-09-15T06:07:25.127Z,8.48
2022-09-15T06:14:59.753Z,8.60
2022-09-15T06:22:35.076Z,9.82
2022-09-15T06:30:10.477Z,8.05
2022-09-15T06:37:46.110Z,7.32
2022-09-15T06:45:19.885Z,7.35
2022-09-15T06:52:54.905Z,8.25
2022-09-15T07:08:06.078Z,8.13
2022-09-15T07:15:40.240Z,6.40
2022-09-15T07:23:15.544Z,8.13
2022-09-15T07:30:52.147Z,8.32
2022-09-15T07:38:27.276Z,5.95
2022-09-15T07:46:01.069Z,4.97
2022-09-15T07:53:36.302Z,7.30
2022-09-15T08:01:12.027Z,4.70
2022-09-15T08:08:47.571Z,5.90
2022-09-15T08:16:23.554Z,5.63
2022-09-15T08:24:00.115Z,5.55
2022-09-15T08:31:33.883Z,4.55
2022-09-15T08:39:08.903Z,5.28
2022-09-15T08:54:26.598Z,6.40
2022-09-15T09:02:29.473Z,6.70
2022-09-15T09:10:14.279Z,3.97
2022-09-15T09:18:07.335Z,6.93
2022-09-15T09:25:44.014Z,5.90
2022-09-15T09:33:30.339Z,7.32
2022-09-15T09:41:12.331Z,3.95
2022-09-15T09:48:50.306Z,5.03
2022-09-15T09:56:27.078Z,3.88
2022-09-15T10:04:13.613Z,7.20
2022-09-15T10:11:51.434Z,2.65
2022-09-15T10:19:25.126Z,7.40
2022-09-15T10:27:09.540Z,7.15
2022-09-15T10:34:43.991Z,4.28
2022-09-15T10:42:29.071Z,2.70
2022-09-15T10:50:13.683Z,3.85
2022-09-15T10:58:08.193Z,3.80
2022-09-15T11:05:55.941Z,5.80
2022-09-15T11:13:42.201Z,3.00
2022-09-15T11:21:24.020Z,3.38
2022-09-15T11:29:06.727Z,3.97
2022-09-15T11:36:46.356Z,2.47
2022-09-15T11:44:25.564Z,5.95
2022-09-15T11:52:04.265Z,2.75
2022-09-15T11:59:45.755Z,4.63
2022-09-15T12:07:25.160Z,2.03
2022-09-15T12:15:00.566Z,4.18
2022-09-15T12:22:42.836Z,2.10
2022-09-15T12:30:42.695Z,4.03
2022-09-15T12:38:16.573Z,2.78
2022-09-15T12:45:57.848Z,2.70
2022-09-15T13:01:33.102Z,6.70
2022-09-15T13:09:25.914Z,3.75
2022-09-15T13:17:06.788Z,6.28
2022-09-15T13:24:47.946Z,2.95
2022-09-15T13:32:40.718Z,3.60
2022-09-15T13:40:39.410Z,1.52
2022-09-15T13:48:33.646Z,1.45
2022-09-15T13:56:09.791Z,1.55
2022-09-15T14:03:48.270Z,3.55
2022-09-15T14:11:26.264Z,4.38
2022-09-15T14:19:02.245Z,1.80
2022-09-15T14:26:37.290Z,4.88
2022-09-15T14:41:51.620Z,6.10
2022-09-15T14:49:26.995Z,3.92
2022-09-15T14:57:03.886Z,2.25
2022-09-15T15:04:42.269Z,3.00
2022-09-15T15:12:23.182Z,1.73
2022-09-15T15:20:13.751Z,1.08
2022-09-15T15:27:53.270Z,1.23
2022-09-15T15:35:29.242Z,1.88
2022-09-15T15:43:05.929Z,2.60
2022-09-15T15:50:41.450Z,1.42
2022-09-15T15:58:16.916Z,4.35
2022-09-15T16:05:54.147Z,5.90
2022-09-15T16:13:28.496Z,2.83
2022-09-15T16:21:03.731Z,0.60
2022-09-15T16:28:37.496Z,1.80
2022-09-15T16:36:14.213Z,2.03
2022-09-15T16:43:48.708Z,2.25
2022-09-15T16:51:29.929Z,1.67
2022-09-15T16:59:05.214Z,1.52
2022-09-15T17:06:40.246Z,2.95
2022-09-15T17:21:52.695Z,2.23
2022-09-15T17:29:26.936Z,0.60
2022-09-15T17:37:02.004Z,0.23
2022-09-15T17:52:13.252Z,0.73
2022-09-15T17:59:47.031Z,0.88
2022-09-15T18:07:23.319Z,1.58
2022-09-15T18:14:57.224Z,2.15
2022-09-15T18:22:32.366Z,1.63
2022-09-15T18:30:06.948Z,2.00
2022-09-15T18:37:43.021Z,1.53
2022-09-15T18:45:18.329Z,2.28
2022-09-15T18:52:54.308Z,2.33
2022-09-15T19:00:28.813Z,1.80
2022-09-15T19:08:04.846Z,1.10
2022-09-15T19:15:40.352Z,1.75
2022-09-15T19:23:16.013Z,3.08
2022-09-15T19:30:50.337Z,0.85
2022-09-15T19:38:25.844Z,3.00
2022-09-15T19:45:59.531Z,0.80
2022-09-15T19:53:34.667Z,0.75
2022-09-15T20:01:08.380Z,2.08
2022-09-15T20:08:45.680Z,1.45
2022-09-15T20:16:21.111Z,2.90
2022-09-15T20:23:57.896Z,4.68
2022-09-15T20:31:32.929Z,2.08
2022-09-15T20:46:44.808Z,3.00
2022-09-15T20:54:20.011Z,0.97
2022-09-15T21:01:53.746Z,3.28
2022-09-15T21:09:28.835Z,2.22
2022-09-15T21:24:37.886Z,2.90
2022-09-15T21:32:11.572Z,1.05
2022-09-15T21:39:46.676Z,2.05
2022-09-15T21:47:20.416Z,4.80
2022-09-15T21:54:55.510Z,2.47
2022-09-15T22:10:06.514Z,4.82
2022-09-15T22:17:40.185Z,0.90
2022-09-15T22:25:19.778Z,1.73
2022-09-15T22:32:55.405Z,3.40
2022-09-15T22:40:31.263Z,1.77
2022-09-15T22:48:05.243Z,1.23
2022-09-15T22:55:40.366Z,1.08
2022-09-15T23:10:52.158Z,0.97
2022-09-15T23:18:26.930Z,1.92
2022-09-15T23:26:02.539Z,1.27
2022-09-15T23:33:36.195Z,2.70
2022-09-15T23:41:12.808Z,3.10
2022-09-15T23:48:46.517Z,4.10
2022-09-15T23:56:21.560Z,2.63
